createdAt,value
2019-02-06T00:01:18.645Z,13.00
2019-02-06T00:03:50.950Z,14.30
2019-02-06T00:06:36.053Z,12.87
2019-02-06T00:09:21.262Z,12.30
2019-02-06T00:11:53.870Z,12.33
2019-02-06T00:14:26.136Z,14.03
2019-02-06T00:17:18.013Z,12.33
2019-02-06T00:20:03.122Z,12.43
2019-02-06T00:22:48.085Z,12.70
2019-02-06T00:25:33.663Z,13.27
2019-02-06T00:28:18.385Z,13.67
2019-02-06T00:31:03.561Z,11.83
2019-02-06T00:33:48.450Z,13.63
2019-02-06T00:36:20.679Z,13.33
2019-02-06T00:39:34.434Z,12.13
2019-02-06T00:42:19.864Z,12.30
2019-02-06T00:47:58.386Z,12.47
2019-02-06T00:50:43.597Z,11.47
2019-02-06T00:53:28.755Z,11.90
2019-02-06T00:56:13.849Z,10.97
2019-02-06T00:58:46.150Z,11.60
2019-02-06T01:01:31.346Z,13.07
2019-02-06T01:04:16.118Z,12.80
2019-02-06T01:07:01.283Z,11.50
2019-02-06T01:09:46.490Z,11.37
2019-02-06T01:12:18.710Z,11.77
2019-02-06T01:14:50.946Z,11.57
2019-02-06T01:17:25.773Z,12.20
2019-02-06T01:20:04.551Z,12.20
2019-02-06T01:22:49.573Z,10.97
2019-02-06T01:25:22.272Z,11.80
2019-02-06T01:28:14.017Z,12.03
2019-02-06T01:34:06.024Z,11.43
2019-02-06T01:36:38.221Z,11.13
2019-02-06T01:39:30.359Z,11.13
2019-02-06T01:42:15.753Z,11.17
2019-02-06T01:45:01.400Z,12.23
2019-02-06T01:47:46.385Z,10.53
2019-02-06T01:50:32.363Z,11.73
2019-02-06T01:53:17.415Z,10.90
2019-02-06T01:55:49.713Z,11.97
2019-02-06T01:58:22.219Z,10.70
2019-02-06T02:01:07.557Z,12.40
2019-02-06T02:03:52.749Z,11.63
2019-02-06T02:06:37.969Z,11.23
2019-02-06T02:09:22.858Z,11.00
2019-02-06T02:12:08.176Z,11.93
2019-02-06T02:14:40.475Z,11.20
2019-02-06T02:17:25.862Z,11.33
2019-02-06T02:19:58.081Z,10.50
2019-02-06T02:22:50.918Z,10.93
2019-02-06T02:25:35.955Z,10.03
2019-02-06T02:28:21.214Z,10.00
2019-02-06T02:31:06.498Z,10.57
2019-02-06T02:33:51.507Z,10.20
2019-02-06T02:36:36.438Z,10.63
2019-02-06T02:39:21.542Z,10.60
2019-02-06T02:41:54.203Z,10.23
2019-02-06T02:44:45.933Z,11.20
2019-02-06T02:47:30.553Z,10.40
2019-02-06T02:50:16.003Z,10.23
2019-02-06T02:53:00.601Z,10.53
2019-02-06T02:55:32.913Z,10.43
2019-02-06T02:58:24.714Z,11.30
2019-02-06T03:01:29.206Z,10.57
2019-02-06T03:04:24.697Z,9.77
2019-02-06T03:06:57.018Z,10.87
2019-02-06T03:09:48.823Z,11.07
2019-02-06T03:12:33.954Z,10.67
2019-02-06T03:15:19.170Z,11.93
2019-02-06T03:18:04.337Z,11.17
2019-02-06T03:20:36.452Z,10.87
2019-02-06T03:23:28.875Z,11.77
2019-02-06T03:26:14.145Z,10.97
2019-02-06T03:28:59.410Z,11.33
2019-02-06T03:31:45.141Z,13.00
2019-02-06T03:34:29.912Z,12.70
2019-02-06T03:37:14.933Z,12.93
2019-02-06T03:39:47.251Z,12.57
2019-02-06T03:42:33.009Z,13.23
2019-02-06T03:45:17.769Z,12.03
2019-02-06T03:48:02.759Z,11.50
2019-02-06T03:50:47.746Z,12.47
2019-02-06T03:53:32.902Z,12.27
2019-02-06T03:59:21.612Z,12.47
2019-02-06T04:02:06.696Z,13.20
2019-02-06T04:04:51.730Z,12.77
2019-02-06T04:07:37.010Z,13.93
2019-02-06T04:10:21.819Z,12.23
2019-02-06T04:13:06.120Z,14.93
2019-02-06T04:15:51.506Z,15.00
2019-02-06T04:18:36.491Z,12.37
2019-02-06T04:21:21.670Z,13.53
2019-02-06T04:24:06.693Z,13.77
2019-02-06T04:26:51.744Z,13.87
2019-02-06T04:29:24.074Z,13.50
2019-02-06T04:31:56.272Z,13.73
2019-02-06T04:34:28.373Z,14.23
2019-02-06T04:37:20.506Z,13.90
2019-02-06T04:40:05.764Z,14.50
2019-02-06T04:42:50.668Z,13.97
2019-02-06T04:45:36.118Z,14.20
2019-02-06T04:48:08.337Z,15.60
2019-02-06T04:51:00.268Z,15.20
2019-02-06T04:53:45.704Z,16.77
2019-02-06T04:56:17.986Z,17.13
2019-02-06T04:59:02.818Z,16.07
2019-02-06T05:01:47.786Z,15.70
2019-02-06T05:04:32.773Z,16.43
2019-02-06T05:07:19.645Z,16.17
2019-02-06T05:10:04.858Z,17.47
2019-02-06T05:12:50.229Z,17.43
2019-02-06T05:15:22.907Z,17.77
2019-02-06T05:17:55.955Z,17.77
2019-02-06T05:20:49.630Z,18.33
2019-02-06T05:23:34.880Z,19.43
2019-02-06T05:26:19.898Z,18.90
2019-02-06T05:29:05.917Z,17.77
2019-02-06T05:31:50.717Z,19.20
2019-02-06T05:34:35.517Z,19.40
2019-02-06T05:37:31.561Z,20.60
2019-02-06T05:39:55.541Z,20.60
2019-02-06T05:42:47.369Z,19.50
2019-02-06T05:45:32.696Z,20.70
2019-02-06T05:48:17.797Z,21.03
2019-02-06T05:50:50.275Z,22.23
2019-02-06T05:53:34.893Z,20.63
2019-02-06T05:56:19.926Z,21.17
2019-02-06T05:59:05.306Z,20.00
2019-02-06T06:01:50.104Z,20.33
2019-02-06T06:04:35.186Z,21.20
2019-02-06T06:07:20.864Z,22.33
2019-02-06T06:10:05.381Z,21.03
2019-02-06T06:12:50.532Z,21.13
2019-02-06T06:15:35.492Z,21.53
2019-02-06T06:18:21.995Z,22.63
2019-02-06T06:21:07.783Z,20.67
2019-02-06T06:23:52.941Z,22.97
2019-02-06T06:26:38.125Z,23.10
2019-02-06T06:29:10.376Z,23.67
2019-02-06T06:32:02.817Z,23.60
2019-02-06T06:34:47.934Z,24.10
2019-02-06T06:37:33.126Z,23.73
2019-02-06T06:40:18.163Z,24.87
2019-02-06T06:43:03.500Z,25.50
2019-02-06T06:45:48.352Z,25.87
2019-02-06T06:48:33.721Z,24.17
2019-02-06T06:51:18.338Z,26.83
2019-02-06T06:54:03.711Z,27.53
2019-02-06T06:56:48.761Z,26.07
2019-02-06T06:59:33.774Z,24.73
2019-02-06T07:02:18.769Z,26.47
2019-02-06T07:05:05.571Z,26.47
2019-02-06T07:07:50.640Z,25.83
2019-02-06T07:10:36.509Z,26.20
2019-02-06T07:13:08.929Z,26.20
2019-02-06T07:16:01.316Z,25.37
2019-02-06T07:18:46.578Z,27.23
2019-02-06T07:21:31.567Z,26.47
2019-02-06T07:24:16.551Z,27.47
2019-02-06T07:26:49.100Z,27.17
2019-02-06T07:29:34.541Z,27.03
2019-02-06T07:32:07.181Z,26.83
2019-02-06T07:34:58.989Z,25.70
2019-02-06T07:37:44.197Z,25.97
2019-02-06T07:40:29.249Z,24.90
2019-02-06T07:43:14.437Z,26.20
2019-02-06T07:45:59.591Z,25.23
2019-02-06T07:48:44.660Z,25.20
2019-02-06T07:51:29.715Z,25.50
2019-02-06T07:54:15.340Z,25.23
2019-02-06T07:56:50.331Z,24.27
2019-02-06T07:59:36.053Z,25.17
2019-02-06T08:02:20.765Z,24.83
2019-02-06T08:05:05.717Z,24.10
2019-02-06T08:07:50.907Z,25.73
2019-02-06T08:10:25.149Z,24.80
2019-02-06T08:13:12.030Z,25.30
2019-02-06T08:16:00.272Z,24.93
2019-02-06T08:18:35.181Z,25.50
2019-02-06T08:21:13.192Z,24.40
2019-02-06T08:24:07.462Z,25.07
2019-02-06T08:26:43.064Z,23.83
2019-02-06T08:29:36.622Z,23.17
2019-02-06T08:32:31.895Z,23.30
2019-02-06T08:35:21.608Z,23.37
2019-02-06T08:41:24.582Z,24.00
2019-02-06T08:44:10.919Z,24.67
2019-02-06T08:46:57.279Z,23.63
2019-02-06T08:49:45.567Z,25.00
2019-02-06T08:52:34.405Z,23.27
2019-02-06T08:55:20.243Z,25.23
2019-02-06T08:57:52.786Z,21.47
2019-02-06T09:00:38.085Z,22.53
2019-02-06T09:03:24.005Z,21.70
2019-02-06T09:09:13.299Z,22.67
2019-02-06T09:11:58.277Z,21.60
2019-02-06T09:14:30.653Z,21.73
2019-02-06T09:17:16.426Z,23.47
2019-02-06T09:20:01.297Z,21.07
2019-02-06T09:28:48.124Z,21.00
2019-02-06T09:31:45.327Z,20.50
2019-02-06T09:34:54.679Z,21.57
2019-02-06T09:37:30.541Z,20.93
2019-02-06T09:40:05.049Z,22.87
2019-02-06T09:42:49.814Z,21.10
2019-02-06T09:45:22.626Z,21.83
2019-02-06T09:48:08.279Z,21.30
2019-02-06T09:50:41.013Z,21.93
2019-02-06T09:53:26.391Z,20.60
2019-02-06T09:56:11.732Z,20.07
2019-02-06T09:58:57.752Z,21.23
2019-02-06T10:01:31.157Z,20.63
2019-02-06T10:04:17.660Z,17.77
2019-02-06T10:07:02.742Z,19.60
2019-02-06T10:09:48.210Z,18.03
2019-02-06T10:12:34.200Z,19.10
2019-02-06T10:15:07.247Z,18.50
2019-02-06T10:17:52.507Z,20.63
2019-02-06T10:20:38.150Z,17.53
2019-02-06T10:23:11.140Z,17.13
2019-02-06T10:26:02.961Z,17.97
2019-02-06T10:28:48.430Z,18.40
2019-02-06T10:31:21.183Z,18.73
2019-02-06T10:34:06.257Z,20.27
2019-02-06T10:36:38.724Z,17.73
2019-02-06T10:39:34.196Z,16.97
2019-02-06T10:42:10.578Z,17.30
2019-02-06T10:44:55.559Z,17.07
2019-02-06T10:47:40.935Z,17.80
2019-02-06T10:50:16.088Z,17.90
2019-02-06T10:53:00.955Z,17.23
2019-02-06T10:55:45.990Z,16.60
2019-02-06T11:01:36.673Z,17.20
2019-02-06T11:04:22.078Z,16.10
2019-02-06T11:06:54.445Z,16.13
2019-02-06T11:09:48.301Z,25.80
2019-02-06T11:12:33.553Z,31.37
2019-02-06T11:15:18.339Z,18.07
2019-02-06T11:18:03.880Z,15.13
2019-02-06T11:20:48.936Z,13.33
2019-02-06T11:23:34.418Z,14.63
2019-02-06T11:26:07.115Z,14.80
2019-02-06T11:29:04.189Z,14.93
2019-02-06T11:31:36.432Z,13.33
2019-02-06T11:34:09.095Z,12.60
2019-02-06T11:37:01.068Z,11.97
2019-02-06T11:39:57.306Z,11.90
2019-02-06T11:42:33.720Z,12.07
2019-02-06T11:45:18.510Z,11.40
2019-02-06T11:48:03.530Z,12.87
2019-02-06T11:50:48.614Z,12.67
2019-02-06T11:53:33.648Z,12.90
2019-02-06T11:56:18.666Z,11.30
2019-02-06T11:59:03.874Z,14.33
2019-02-06T12:01:56.138Z,24.40
2019-02-06T12:07:48.359Z,11.37
2019-02-06T12:10:33.352Z,12.50
2019-02-06T12:13:18.578Z,10.97
2019-02-06T12:16:03.510Z,10.17
2019-02-06T12:18:48.670Z,10.10
2019-02-06T12:21:33.634Z,9.73
2019-02-06T12:24:06.360Z,10.77
2019-02-06T12:26:51.786Z,10.43
2019-02-06T12:29:36.788Z,10.00
2019-02-06T12:32:21.793Z,9.43
2019-02-06T12:34:54.747Z,10.07
2019-02-06T12:37:47.016Z,10.33
2019-02-06T12:40:21.651Z,10.20
2019-02-06T12:43:12.934Z,10.43
2019-02-06T12:45:58.459Z,10.50
2019-02-06T12:48:43.209Z,10.70
2019-02-06T12:51:28.170Z,11.67
2019-02-06T12:54:13.670Z,11.20
2019-02-06T12:56:58.382Z,10.83
2019-02-06T12:59:43.945Z,10.33
2019-02-06T13:02:28.534Z,10.53
2019-02-06T13:05:13.714Z,10.77
2019-02-06T13:07:46.040Z,10.90
2019-02-06T13:10:34.341Z,12.20
2019-02-06T13:13:17.812Z,9.60
2019-02-06T13:15:50.260Z,14.57
2019-02-06T13:18:24.282Z,13.87
2019-02-06T13:21:36.370Z,11.93
2019-02-06T13:24:21.211Z,11.67
2019-02-06T13:26:54.837Z,11.43
2019-02-06T13:29:40.461Z,10.73
2019-02-06T13:32:25.460Z,10.60
2019-02-06T13:35:10.492Z,11.57
2019-02-06T13:37:55.668Z,10.73
2019-02-06T13:43:44.841Z,9.93
2019-02-06T13:46:29.604Z,10.27
2019-02-06T13:49:15.004Z,9.87
2019-02-06T13:52:00.691Z,11.57
2019-02-06T13:54:32.913Z,10.77
2019-02-06T13:57:46.445Z,50.13
2019-02-06T14:00:52.522Z,15.57
2019-02-06T14:03:44.295Z,11.10
2019-02-06T14:06:29.321Z,15.97
2019-02-06T14:09:22.537Z,13.87
2019-02-06T14:12:02.517Z,11.17
2019-02-06T14:14:47.572Z,11.10
2019-02-06T14:17:32.817Z,11.10
2019-02-06T14:20:09.099Z,10.90
2019-02-06T14:23:20.533Z,11.47
2019-02-06T14:26:05.488Z,12.93
2019-02-06T14:28:50.716Z,12.13
2019-02-06T14:31:36.010Z,13.57
2019-02-06T14:34:21.246Z,11.87
2019-02-06T14:37:32.992Z,11.77
2019-02-06T14:40:17.562Z,13.63
2019-02-06T14:43:03.021Z,15.07
2019-02-06T14:45:48.342Z,14.13
2019-02-06T14:48:33.339Z,13.93
2019-02-06T14:51:18.397Z,14.00
2019-02-06T14:54:03.502Z,12.33
2019-02-06T14:56:48.634Z,10.63
2019-02-06T15:00:00.324Z,11.93
2019-02-06T15:03:11.839Z,14.17
2019-02-06T15:05:57.237Z,13.73
2019-02-06T15:08:43.024Z,13.90
2019-02-06T15:11:28.197Z,11.77
2019-02-06T15:14:13.600Z,13.33
2019-02-06T15:17:25.085Z,13.97
2019-02-06T15:20:28.457Z,16.43
2019-02-06T15:23:14.021Z,13.93
2019-02-06T15:25:58.916Z,14.63
2019-02-06T15:28:44.116Z,16.37
2019-02-06T15:31:29.013Z,13.77
2019-02-06T15:34:15.593Z,14.40
2019-02-06T15:37:00.857Z,12.23
2019-02-06T15:39:46.472Z,11.63
2019-02-06T15:42:31.239Z,14.70
2019-02-06T15:45:16.450Z,15.30
2019-02-06T15:48:01.880Z,16.47
2019-02-06T15:50:47.542Z,17.07
2019-02-06T15:53:52.463Z,14.70
2019-02-06T15:57:05.796Z,11.70
2019-02-06T15:59:51.071Z,12.10
2019-02-06T16:02:36.338Z,11.60
2019-02-06T16:05:52.144Z,11.17
2019-02-06T16:08:37.445Z,11.87
2019-02-06T16:11:22.413Z,10.43
2019-02-06T16:14:07.497Z,11.63
2019-02-06T16:16:52.383Z,11.50
2019-02-06T16:19:37.415Z,14.27
2019-02-06T16:22:22.588Z,19.37
2019-02-06T16:25:08.293Z,26.73
2019-02-06T16:27:53.496Z,14.40
2019-02-06T16:30:38.455Z,13.33
2019-02-06T16:33:23.564Z,21.43
2019-02-06T16:36:08.603Z,21.27
2019-02-06T16:38:54.011Z,17.93
2019-02-06T16:41:39.009Z,18.33
2019-02-06T16:44:24.174Z,16.23
2019-02-06T16:47:09.190Z,14.60
2019-02-06T16:49:54.042Z,14.27
2019-02-06T16:53:05.421Z,13.93
2019-02-06T16:55:50.236Z,13.63
2019-02-06T16:58:35.377Z,13.73
2019-02-06T17:01:20.268Z,14.50
2019-02-06T17:04:05.526Z,15.23
2019-02-06T17:06:50.494Z,38.50
2019-02-06T17:09:36.582Z,14.73
2019-02-06T17:12:21.571Z,15.57
2019-02-06T17:15:06.645Z,18.40
2019-02-06T17:17:51.657Z,19.20
2019-02-06T17:21:03.011Z,24.30
2019-02-06T17:23:47.638Z,16.73
2019-02-06T17:26:32.847Z,10.43
2019-02-06T17:29:17.707Z,13.97
2019-02-06T17:32:02.824Z,13.00
2019-02-06T17:34:47.721Z,13.20
2019-02-06T17:37:33.065Z,12.77
2019-02-06T17:40:18.076Z,15.03
2019-02-06T17:43:14.276Z,12.70
2019-02-06T17:45:57.568Z,13.90
2019-02-06T17:48:42.240Z,12.53
2019-02-06T17:51:27.088Z,13.17
2019-02-06T17:54:11.974Z,15.50
2019-02-06T17:56:57.028Z,18.40
2019-02-06T17:59:29.228Z,17.40
2019-02-06T18:02:21.333Z,14.90
2019-02-06T18:05:06.062Z,15.77
2019-02-06T18:07:38.721Z,16.10
2019-02-06T18:10:23.834Z,14.87
2019-02-06T18:12:56.057Z,14.83
2019-02-06T18:15:47.778Z,14.57
2019-02-06T18:18:33.060Z,16.77
2019-02-06T18:21:18.172Z,19.13
2019-02-06T18:23:50.510Z,15.27
2019-02-06T18:26:45.988Z,21.07
2019-02-06T18:29:30.953Z,20.40
2019-02-06T18:32:15.848Z,16.20
2019-02-06T18:35:03.304Z,23.30
2019-02-06T18:37:48.066Z,20.47
2019-02-06T18:40:32.819Z,23.73
2019-02-06T18:43:18.061Z,16.53
2019-02-06T18:46:03.509Z,12.70
2019-02-06T18:48:49.104Z,13.40
2019-02-06T18:51:33.785Z,17.13
2019-02-06T18:54:18.842Z,24.80
2019-02-06T18:57:03.910Z,21.13
2019-02-06T18:59:36.357Z,16.57
2019-02-06T19:02:08.832Z,14.73
2019-02-06T19:04:54.029Z,14.63
2019-02-06T19:07:38.900Z,21.43
2019-02-06T19:10:23.804Z,19.30
2019-02-06T19:13:09.005Z,22.00
2019-02-06T19:15:56.526Z,18.87
2019-02-06T19:18:40.721Z,32.97
2019-02-06T19:21:13.029Z,23.27
2019-02-06T19:23:57.572Z,21.17
2019-02-06T19:26:30.193Z,17.80
2019-02-06T19:29:14.703Z,17.73
2019-02-06T19:31:47.209Z,15.93
2019-02-06T19:34:32.557Z,13.97
2019-02-06T19:37:17.525Z,11.83
2019-02-06T19:40:02.549Z,13.70
2019-02-06T19:42:34.905Z,13.97
2019-02-06T19:45:26.930Z,19.30
2019-02-06T19:48:22.307Z,15.93
2019-02-06T19:51:06.678Z,35.53
2019-02-06T19:53:51.869Z,15.90
2019-02-06T19:56:36.895Z,28.60
2019-02-06T19:59:21.901Z,21.20
2019-02-06T20:02:06.684Z,17.80
2019-02-06T20:04:51.904Z,15.67
2019-02-06T20:07:24.423Z,11.97
2019-02-06T20:10:09.913Z,12.60
2019-02-06T20:12:55.066Z,12.37
2019-02-06T20:15:40.187Z,11.20
2019-02-06T20:18:12.509Z,11.53
2019-02-06T20:20:57.794Z,11.67
2019-02-06T20:23:42.665Z,11.17
2019-02-06T20:26:14.959Z,11.23
2019-02-06T20:29:06.999Z,11.17
2019-02-06T20:31:52.265Z,10.93
2019-02-06T20:34:37.464Z,10.57
2019-02-06T20:37:22.521Z,12.10
2019-02-06T20:40:07.746Z,12.20
2019-02-06T20:42:52.688Z,12.33
2019-02-06T20:45:37.899Z,11.60
2019-02-06T20:48:23.124Z,11.20
2019-02-06T20:50:55.345Z,11.43
2019-02-06T20:53:27.574Z,11.73
2019-02-06T20:56:12.540Z,10.87
2019-02-06T20:58:57.515Z,11.40
2019-02-06T21:01:42.797Z,11.50
2019-02-06T21:04:27.701Z,12.93
2019-02-06T21:07:12.267Z,11.00
2019-02-06T21:09:57.214Z,10.80
2019-02-06T21:12:29.622Z,11.50
2019-02-06T21:15:21.696Z,9.73
2019-02-06T21:18:06.637Z,10.93
2019-02-06T21:20:39.318Z,10.53
2019-02-06T21:23:24.953Z,10.73
2019-02-06T21:26:10.130Z,15.20
2019-02-06T21:28:55.061Z,14.73
2019-02-06T21:31:40.124Z,12.77
2019-02-06T21:34:25.272Z,12.83
2019-02-06T21:37:10.153Z,11.10
2019-02-06T21:39:55.161Z,11.53
2019-02-06T21:42:40.153Z,11.67
2019-02-06T21:45:25.269Z,11.30
2019-02-06T21:47:57.593Z,11.20
2019-02-06T21:50:43.004Z,11.17
2019-02-06T21:53:28.262Z,11.77
2019-02-06T21:56:13.081Z,10.33
2019-02-06T21:58:58.098Z,10.93
2019-02-06T22:01:43.054Z,10.23
2019-02-06T22:04:28.199Z,10.27
2019-02-06T22:07:13.390Z,11.00
2019-02-06T22:09:58.417Z,11.00
2019-02-06T22:12:43.713Z,10.00
2019-02-06T22:15:28.770Z,10.57
2019-02-06T22:18:13.788Z,11.43
2019-02-06T22:20:59.364Z,10.83
2019-02-06T22:23:43.818Z,10.80
2019-02-06T22:26:28.963Z,13.77
2019-02-06T22:29:13.767Z,12.00
2019-02-06T22:31:58.764Z,11.67
2019-02-06T22:34:43.773Z,10.60
2019-02-06T22:37:28.915Z,10.47
2019-02-06T22:40:01.418Z,11.17
2019-02-06T22:42:33.864Z,11.37
2019-02-06T22:45:18.586Z,10.53
2019-02-06T22:48:03.921Z,10.93
2019-02-06T22:50:48.846Z,10.03
2019-02-06T22:53:34.060Z,10.63
2019-02-06T22:56:19.962Z,11.70
2019-02-06T22:58:52.332Z,11.37
2019-02-06T23:01:37.848Z,11.00
2019-02-06T23:04:10.553Z,10.67
2019-02-06T23:06:55.717Z,11.33
2019-02-06T23:09:40.691Z,11.87
2019-02-06T23:12:13.502Z,11.60
2019-02-06T23:14:45.618Z,10.63
2019-02-06T23:17:30.435Z,11.13
2019-02-06T23:20:24.179Z,10.73
2019-02-06T23:22:56.435Z,10.07
2019-02-06T23:25:43.091Z,11.53
2019-02-06T23:28:15.705Z,17.43
2019-02-06T23:30:47.893Z,15.73
2019-02-06T23:33:20.245Z,14.77
2019-02-06T23:36:12.090Z,11.60
2019-02-06T23:38:57.716Z,11.47
2019-02-06T23:41:43.007Z,12.23
2019-02-06T23:44:15.493Z,11.27
2019-02-06T23:47:02.831Z,10.83
2019-02-06T23:49:47.948Z,9.40
2019-02-06T23:52:32.944Z,11.53
2019-02-06T23:55:05.573Z,10.37
2019-02-06T23:57:50.075Z,10.33
